• Join FlightAware (Why Join?)
  • Login
  • US Flag 
03:01AM EST


 

Airport Tracker/Info


-or-


 

Live Flight TrackerFlight Track Log ✈ FIV576 ✈ 10-Nov-2013 ✈ KPSP - KASE

Flight Track Log - Related Links

Times and Time Zones

All times are in EST time to prevent confusion due to time zone crossing. See the FIV576 flight status page for this flight to view local times or setup timezone preferences in your user account.

Time Position Orientation Groundspeed Altitude Reporting Facility
EST Latitude Longitude Course Direction KTS MPH feet Rate Location/Type
03:13PM 33.8475 -116.5239 323° Northwest 175 201 35,000  Level Los Angeles Center
03:14PM 33.8878 -116.5603 323° Northwest 179 206 35,000 -13,620 Level Los Angeles Center
03:15PM 33.9294 -116.5336 28° Northeast 217 250 6,900 -12,300 Descending Los Angeles Center
03:16PM 33.9514 -116.4469 73° East 274 315 9,700 2,340 Climbing Los Angeles Center
03:17PM 33.9714 -116.3558 75° East 284 327 11,800 2,160 Climbing Los Angeles Center
03:18PM 34.0014 -116.2294 74° East 322 371 14,200 2,100 Climbing Los Angeles Center
03:19PM 34.0281 -116.1178 74° East 340 391 16,200 1,860 Climbing Los Angeles Center
03:20PM 34.0564 -116.0011 74° East 354 407 18,100 1,860 Climbing Los Angeles Center
03:21PM 34.0847 -115.8836 74° East 361 415 20,100 1,800 Climbing Los Angeles Center
03:22PM 34.1144 -115.7600 74° East 375 432 21,900 1,560 Climbing Los Angeles Center
03:23PM 34.1711 -115.6444 59° Northeast 400 460 23,400 1,620 Climbing Los Angeles Center
03:24PM 34.2381 -115.5028 60° Northeast 404 465 25,300 1,620 Climbing Los Angeles Center
03:25PM 34.2947 -115.3831 60° Northeast 409 471 26,800 1,440 Climbing Los Angeles Center
03:26PM 34.3514 -115.2617 60° Northeast 413 475 28,300 1,020 Climbing Los Angeles Center
03:27PM 34.4094 -115.1378 60° Northeast 419 482 29,000 300 Climbing Los Angeles Center
03:28PM 34.4708 -115.0083 60° Northeast 435 501 29,000  Level Los Angeles Center
03:30PM 34.5433 -114.8525 61° Northeast 442 509 29,000  Level Los Angeles Center
03:31PM 34.6042 -114.7219 60° Northeast 444 511 29,000  Level Los Angeles Center
03:32PM 34.6589 -114.6039 61° Northeast 446 513 29,000 120 Level Los Angeles Center
03:33PM 34.7369 -114.4481 59° Northeast 450 518 29,300 840 Climbing Los Angeles Center
03:34PM 34.8217 -114.3417 46° Northeast 439 505 30,800 1,380 Climbing Los Angeles Center
03:35PM 34.9058 -114.2372 45° Northeast 432 497 32,200 1,380 Climbing Los Angeles Center
03:36PM 34.9897 -114.1331 45° Northeast 431 496 33,700 1,320 Climbing Los Angeles Center
03:37PM 35.0728 -114.0294 46° Northeast 429 494 35,000 780 Climbing Los Angeles Center
03:38PM 35.1650 -113.9025 48° Northeast 437 503 35,400 720 Climbing Los Angeles Center
03:39PM 35.2314 -113.7781 57° Northeast 439 505 36,600 720 Climbing Los Angeles Center
03:40PM 35.3008 -113.6572 55° Northeast 437 503 37,000 180 Climbing Los Angeles Center
03:41PM 35.3694 -113.5372 55° Northeast 432 497 37,000  Level Los Angeles Center
03:42PM 35.4378 -113.4164 55° Northeast 431 496 37,000  Level Los Angeles Center
03:43PM 35.5078 -113.2936 55° Northeast 436 502 37,000 180 Level Los Angeles Center
03:44PM 35.5917 -113.1417 56° Northeast 432 497 37,400 600 Climbing Los Angeles Center
03:45PM 35.6597 -113.0203 55° Northeast 431 496 38,300 720 Climbing Los Angeles Center
03:46PM 35.7258 -112.9017 56° Northeast 432 497 39,000 300 Climbing Los Angeles Center
03:47PM 35.7939 -112.7794 56° Northeast 432 497 39,000  Level Los Angeles Center
03:48PM 35.8614 -112.6578 56° Northeast 431 496 39,000  Level Los Angeles Center
03:49PM 35.9286 -112.5358 56° Northeast 431 496 39,000  Level Los Angeles Center
03:50PM 36.0058 -112.3933 56° Northeast 423 487 39,000  Level Los Angeles Center
03:51PM 36.0728 -112.2728 55° Northeast 423 487 39,000  Level Los Angeles Center
03:52PM 36.1406 -112.1481 56° Northeast 430 495 39,000  Level Los Angeles Center
03:53PM 36.2053 -112.0278 56° Northeast 427 491 39,000  Level Los Angeles Center
03:54PM 36.2708 -111.9056 56° Northeast 427 491 39,000  Level Los Angeles Center
03:55PM 36.3514 -111.7592 56° Northeast 429 494 39,000  Level Los Angeles Center
03:56PM 36.4156 -111.6383 57° Northeast 424 488 39,000  Level Los Angeles Center
03:57PM 36.4794 -111.5186 56° Northeast 421 484 39,000  Level Los Angeles Center
03:59PM 36.5442 -111.3969 56° Northeast 422 486 39,000  Level Los Angeles Center
04:00PM 36.6475 -111.2033 56° Northeast 423 487 39,000  Level Denver Center
04:01PM 36.7192 -111.0897 52° Northeast 418 481 39,000  Level Denver Center
04:02PM 36.7942 -110.9789 50° Northeast 419 482 39,000  Level Denver Center
04:03PM 36.8703 -110.8647 50° Northeast 425 489 39,000  Level Denver Center
04:04PM 36.9467 -110.7494 50° Northeast 431 496 39,000  Level Denver Center
04:05PM 37.0222 -110.6333 51° Northeast 431 496 39,000 -360 Level Denver Center
04:06PM 37.0981 -110.5189 50° Northeast 429 494 38,300 -960 Descending Denver Center
04:07PM 37.1881 -110.3808 51° Northeast 428 493 37,100 -660 Descending Denver Center
04:08PM 37.2631 -110.2669 50° Northeast 424 488 37,000 -60 Descending Denver Center
04:09PM 37.3350 -110.1547 51° Northeast 428 493 37,000  Level Denver Center
04:10PM 37.4214 -110.0217 51° Northeast 435 501 37,000  Level Denver Center
04:11PM 37.4947 -109.9067 51° Northeast 439 505 37,000 -660 Level Denver Center
04:12PM 37.5803 -109.7750 51° Northeast 435 501 35,700 -1,020 Descending Denver Center
04:13PM 37.6525 -109.6622 51° Northeast 432 497 35,000 -360 Descending Denver Center
04:14PM 37.7386 -109.5261 51° Northeast 442 509 35,000  Level Denver Center
04:15PM 37.8128 -109.4092 51° Northeast 443 510 35,000  Level Denver Center
04:16PM 37.8867 -109.2922 51° Northeast 444 511 35,000  Level Denver Center
04:17PM 37.9725 -109.1567 51° Northeast 440 506 35,000  Level Denver Center
04:19PM 38.0456 -109.0378 52° Northeast 443 510 35,000 -120 Level Denver Center
04:20PM 38.1228 -108.9131 52° Northeast 445 512 34,800 -960 Descending Denver Center
04:21PM 38.2092 -108.7744 52° Northeast 448 516 33,100 -1,500 Descending Denver Center
04:22PM 38.2839 -108.6556 51° Northeast 449 517 31,700 -1,380 Descending Denver Center
04:23PM 38.3719 -108.5136 52° Northeast 457 526 30,300 -1,200 Descending Denver Center
04:24PM 38.4461 -108.3925 52° Northeast 453 521 29,300 -1,080 Descending Denver Center
04:25PM 38.5325 -108.2517 52° Northeast 452 520 28,100 -1,140 Descending Denver Center
04:26PM 38.6075 -108.1294 52° Northeast 456 525 27,000 -1,140 Descending Denver Center
04:27PM 38.6947 -107.9853 52° Northeast 459 528 25,800 -1,140 Descending Denver Center
04:28PM 38.7697 -107.8625 52° Northeast 458 527 24,700 -1,140 Descending Denver Center
04:29PM 38.8553 -107.7211 52° Northeast 453 521 23,500 -1,080 Descending Denver Center
04:30PM 38.9256 -107.6019 53° Northeast 445 512 22,500 -1,020 Descending Denver Center
04:31PM 39.0064 -107.4686 52° Northeast 431 496 21,400 -1,080 Descending Denver Center
04:32PM 39.0744 -107.3539 53° Northeast 425 489 20,400 -840 Descending Denver Center
04:33PM 39.1611 -107.2333 47° Northeast 404 465 19,800 -900 Descending Denver Center
04:34PM 39.2375 -107.1903 24° Northeast 329 379 18,600 -1,200 Descending Denver Center
04:35PM 39.3250 -107.1594 15° North 321 369 17,400 -1,380 Descending Denver Center
04:36PM 39.3678 -107.0714 58° Northeast 305 351 15,800 -1,260 Descending Denver Center
04:37PM 39.3922 -106.9753 72° East 291 335 14,800 -1,500 Descending Denver Center
04:38PM 39.3439 -106.9186 138° Southeast 213 245 12,700 -2,520 Descending Denver Center
04:39PM 39.2939 -106.8961 161° South 195 224 9,700 -1,920 Descending Denver Center
04:40PM 39.2469 -106.8839 169° South 190 219 8,800 -900 Descending Denver Center